createdAt,value
2022-10-22T00:02:19.911Z,12.35
2022-10-22T00:06:32.247Z,12.26
2022-10-22T00:10:43.857Z,12.23
2022-10-22T00:14:55.377Z,12.34
2022-10-22T00:19:06.949Z,12.32
2022-10-22T00:23:18.488Z,12.38
2022-10-22T00:27:30.017Z,12.39
2022-10-22T00:31:43.273Z,12.42
2022-10-22T00:35:55.137Z,12.42
2022-10-22T00:40:07.413Z,12.46
2022-10-22T00:44:56.678Z,12.53
2022-10-22T00:49:08.184Z,12.46
2022-10-22T00:53:22.818Z,12.52
2022-10-22T00:57:35.165Z,12.53
2022-10-22T01:01:46.826Z,12.49
2022-10-22T01:06:04.922Z,12.51
2022-10-22T01:10:34.536Z,12.42
2022-10-22T01:14:58.177Z,12.37
2022-10-22T01:19:48.135Z,12.47
2022-10-22T01:24:19.449Z,12.45
2022-10-22T01:29:12.709Z,12.52
2022-10-22T01:33:25.897Z,12.48
2022-10-22T01:37:45.889Z,12.38
2022-10-22T01:41:58.760Z,12.42
2022-10-22T01:46:12.384Z,12.32
2022-10-22T01:50:49.573Z,12.27
2022-10-22T01:55:28.833Z,12.29
2022-10-22T01:59:49.492Z,12.23
2022-10-22T02:04:07.605Z,12.14
2022-10-22T02:08:23.489Z,12.13
2022-10-22T02:12:35.485Z,12.19
2022-10-22T02:16:49.505Z,12.23
2022-10-22T02:21:02.052Z,12.23
2022-10-22T02:25:14.113Z,12.24
2022-10-22T02:29:37.545Z,12.23
2022-10-22T02:33:54.684Z,12.24
2022-10-22T02:38:07.784Z,12.17
2022-10-22T02:42:19.381Z,12.18
2022-10-22T02:46:30.988Z,12.16
2022-10-22T02:50:42.537Z,12.09
2022-10-22T02:54:54.035Z,12.10
2022-10-22T02:59:05.646Z,12.11
2022-10-22T03:03:17.302Z,12.14
2022-10-22T03:07:28.892Z,12.15
2022-10-22T03:11:40.463Z,12.19
2022-10-22T03:15:51.987Z,12.18
2022-10-22T03:20:03.790Z,12.15
2022-10-22T03:24:19.296Z,12.20
2022-10-22T03:28:30.877Z,12.25
2022-10-22T03:32:42.441Z,12.22
2022-10-22T03:36:55.049Z,12.22
2022-10-22T03:41:07.168Z,12.17
2022-10-22T03:45:18.897Z,12.16
2022-10-22T03:49:30.677Z,12.14
2022-10-22T03:53:42.263Z,12.08
2022-10-22T03:57:53.895Z,11.98
2022-10-22T04:02:06.058Z,11.92
2022-10-22T04:06:17.622Z,11.87
2022-10-22T04:10:29.144Z,11.88
2022-10-22T04:14:40.709Z,11.91
2022-10-22T04:18:52.783Z,11.92
2022-10-22T04:23:04.370Z,11.89
2022-10-22T04:27:15.865Z,11.85
2022-10-22T04:31:27.479Z,11.86
2022-10-22T04:35:40.000Z,11.92
2022-10-22T04:39:51.510Z,11.95
2022-10-22T04:44:03.772Z,11.95
2022-10-22T04:48:15.453Z,11.92
2022-10-22T04:52:26.985Z,11.90
2022-10-22T04:56:38.572Z,11.88
2022-10-22T05:00:50.127Z,12.06
2022-10-22T05:05:02.644Z,12.04
2022-10-22T05:09:17.529Z,12.01
2022-10-22T05:13:29.637Z,11.92
2022-10-22T05:17:41.418Z,11.94
2022-10-22T05:21:55.129Z,12.02
2022-10-22T05:26:08.455Z,12.02
2022-10-22T05:30:20.199Z,12.00
2022-10-22T05:34:33.320Z,11.97
2022-10-22T05:38:45.121Z,11.98
2022-10-22T05:42:56.598Z,11.92
2022-10-22T05:47:08.205Z,11.97
2022-10-22T05:51:20.754Z,11.89
2022-10-22T05:55:40.661Z,11.93
2022-10-22T05:59:52.161Z,11.92
2022-10-22T06:04:06.530Z,11.89
2022-10-22T06:08:19.133Z,11.88
2022-10-22T06:12:30.777Z,11.81
2022-10-22T06:16:43.238Z,11.95
2022-10-22T06:20:54.833Z,12.10
2022-10-22T06:25:08.317Z,12.23
2022-10-22T06:29:19.858Z,12.32
2022-10-22T06:33:34.280Z,12.48
2022-10-22T06:37:47.380Z,12.61
2022-10-22T06:41:58.884Z,12.72
2022-10-22T06:46:19.173Z,12.78
2022-10-22T06:50:33.525Z,12.72
2022-10-22T06:54:45.048Z,12.70
2022-10-22T06:58:57.911Z,12.80
2022-10-22T07:03:13.359Z,12.89
2022-10-22T07:07:24.846Z,13.07
2022-10-22T07:11:43.125Z,13.66
2022-10-22T07:15:55.055Z,14.25
2022-10-22T07:20:07.278Z,14.41
2022-10-22T07:24:18.808Z,14.34
2022-10-22T07:28:30.885Z,14.38
2022-10-22T07:32:42.433Z,14.45
2022-10-22T07:36:53.933Z,14.54
2022-10-22T07:41:05.554Z,14.67
2022-10-22T07:45:17.151Z,14.81
2022-10-22T07:49:28.644Z,15.03
2022-10-22T07:53:40.248Z,15.41
2022-10-22T07:57:51.832Z,16.59
2022-10-22T08:02:03.481Z,17.58
2022-10-22T08:06:15.509Z,18.19
2022-10-22T08:10:27.085Z,18.36
2022-10-22T08:14:38.690Z,18.80
2022-10-22T08:18:51.042Z,18.55
2022-10-22T08:23:02.673Z,18.17
2022-10-22T08:27:14.607Z,17.75
2022-10-22T08:31:26.161Z,17.46
2022-10-22T08:35:37.817Z,17.28
2022-10-22T08:39:49.365Z,17.19
2022-10-22T08:44:19.652Z,17.25
2022-10-22T08:48:41.617Z,17.28
2022-10-22T08:53:00.368Z,17.36
2022-10-22T08:57:22.756Z,17.30
2022-10-22T09:01:39.649Z,17.30
2022-10-22T09:06:15.124Z,17.23
2022-10-22T09:10:33.038Z,17.12
2022-10-22T09:14:44.681Z,16.99
2022-10-22T09:19:29.986Z,16.84
2022-10-22T09:23:53.604Z,16.75
2022-10-22T09:28:05.175Z,16.69
2022-10-22T09:32:17.702Z,16.61
2022-10-22T09:36:30.020Z,16.64
2022-10-22T09:40:50.966Z,16.60
2022-10-22T09:45:02.569Z,16.66
2022-10-22T09:49:17.948Z,16.68
2022-10-22T09:53:30.923Z,16.76
2022-10-22T09:57:43.848Z,16.81
2022-10-22T10:02:19.801Z,16.93
2022-10-22T10:06:41.129Z,17.13
2022-10-22T10:10:59.556Z,17.36
2022-10-22T10:15:26.278Z,17.45
2022-10-22T10:19:47.675Z,17.49
2022-10-22T10:24:22.572Z,17.54
2022-10-22T10:28:54.985Z,17.60
2022-10-22T10:33:28.011Z,17.58
2022-10-22T10:37:54.866Z,17.51
2022-10-22T10:42:15.529Z,17.53
2022-10-22T10:46:48.010Z,17.67
2022-10-22T10:51:02.494Z,17.81
2022-10-22T10:55:49.333Z,18.44
2022-10-22T11:00:09.656Z,19.04
2022-10-22T11:04:39.276Z,19.42
2022-10-22T11:08:57.614Z,19.55
2022-10-22T11:13:53.434Z,19.90
2022-10-22T11:18:40.607Z,20.02
2022-10-22T11:23:18.222Z,20.21
2022-10-22T11:27:50.946Z,20.23
2022-10-22T11:32:03.724Z,20.44
2022-10-22T11:36:18.514Z,20.72
2022-10-22T11:40:43.634Z,20.71
2022-10-22T11:45:00.768Z,20.87
2022-10-22T11:49:15.443Z,20.97
2022-10-22T11:53:36.230Z,20.75
2022-10-22T11:57:48.232Z,20.53
2022-10-22T12:01:59.811Z,20.21
2022-10-22T12:06:19.624Z,19.88
2022-10-22T12:10:37.164Z,20.11
2022-10-22T12:14:58.035Z,19.98
2022-10-22T12:19:25.837Z,20.12
2022-10-22T12:23:37.642Z,20.28
2022-10-22T12:27:55.017Z,20.17
2022-10-22T12:32:06.622Z,19.95
2022-10-22T12:36:18.647Z,19.59
2022-10-22T12:40:34.478Z,19.21
2022-10-22T12:44:46.153Z,18.99
2022-10-22T12:49:24.877Z,18.87
2022-10-22T12:53:49.331Z,18.92
2022-10-22T12:58:05.853Z,19.13
2022-10-22T13:02:24.649Z,19.49
2022-10-22T13:06:36.639Z,19.53
2022-10-22T13:10:53.834Z,19.62
2022-10-22T13:15:27.082Z,19.65
2022-10-22T13:20:19.132Z,19.59
2022-10-22T13:24:31.109Z,19.44
2022-10-22T13:28:43.662Z,19.62
2022-10-22T13:33:08.126Z,19.79
2022-10-22T13:37:19.819Z,19.88
2022-10-22T13:41:34.766Z,19.68
2022-10-22T13:45:48.781Z,19.55
2022-10-22T13:50:03.547Z,19.43
2022-10-22T13:54:21.097Z,19.35
2022-10-22T13:58:32.672Z,19.27
2022-10-22T14:02:46.319Z,19.23
2022-10-22T14:07:00.012Z,19.10
2022-10-22T14:11:14.467Z,19.09
2022-10-22T14:15:28.636Z,19.10
2022-10-22T14:19:40.261Z,19.15
2022-10-22T14:23:54.115Z,19.20
2022-10-22T14:28:05.704Z,19.05
2022-10-22T14:32:22.251Z,18.90
2022-10-22T14:36:33.772Z,18.78
2022-10-22T14:40:45.938Z,18.77
2022-10-22T14:44:57.566Z,18.72
2022-10-22T14:49:09.208Z,18.69
2022-10-22T14:53:20.769Z,18.61
2022-10-22T14:57:32.479Z,18.59
2022-10-22T15:01:44.034Z,18.53
2022-10-22T15:05:56.034Z,18.56
2022-10-22T15:10:08.525Z,18.71
2022-10-22T15:14:20.143Z,18.63
2022-10-22T15:18:31.916Z,18.76
2022-10-22T15:22:43.994Z,18.82
2022-10-22T15:26:55.846Z,18.67
2022-10-22T15:31:07.677Z,18.67
2022-10-22T15:35:19.335Z,18.53
2022-10-22T15:39:31.599Z,18.37
2022-10-22T15:43:43.218Z,18.20
2022-10-22T15:47:54.830Z,18.03
2022-10-22T15:52:06.772Z,17.89
2022-10-22T15:56:18.407Z,17.75
2022-10-22T16:00:30.135Z,17.72
2022-10-22T16:04:41.793Z,17.59
2022-10-22T16:08:54.715Z,17.54
2022-10-22T16:13:06.334Z,17.45
2022-10-22T16:17:18.733Z,17.45
2022-10-22T16:21:30.407Z,17.23
2022-10-22T16:25:42.148Z,16.91
2022-10-22T16:29:53.781Z,16.77
2022-10-22T16:34:05.708Z,16.62
2022-10-22T16:38:18.854Z,16.50
2022-10-22T16:42:30.435Z,16.30
2022-10-22T16:46:42.146Z,16.20
2022-10-22T16:50:53.787Z,16.00
2022-10-22T16:55:05.761Z,15.98
2022-10-22T16:59:17.420Z,15.82
2022-10-22T17:03:29.023Z,15.66
2022-10-22T17:07:40.606Z,15.56
2022-10-22T17:11:52.330Z,15.43
2022-10-22T17:16:06.435Z,15.30
2022-10-22T17:20:18.732Z,15.27
2022-10-22T17:24:30.461Z,15.11
2022-10-22T17:28:42.091Z,14.95
2022-10-22T17:32:54.054Z,14.90
2022-10-22T17:37:05.995Z,14.75
2022-10-22T17:41:27.017Z,14.76
2022-10-22T17:45:38.481Z,14.70
2022-10-22T17:49:50.082Z,14.65
2022-10-22T17:54:03.484Z,14.61
2022-10-22T17:58:17.642Z,14.71
2022-10-22T18:02:30.304Z,14.62
2022-10-22T18:06:41.897Z,14.58
2022-10-22T18:10:53.408Z,14.49
2022-10-22T18:15:05.479Z,14.40
2022-10-22T18:19:23.072Z,14.27
2022-10-22T18:23:34.652Z,14.20
2022-10-22T18:27:46.406Z,14.19
2022-10-22T18:31:57.998Z,14.13
2022-10-22T18:36:12.114Z,14.10
2022-10-22T18:40:23.761Z,14.05
2022-10-22T18:44:35.908Z,13.99
2022-10-22T18:48:48.068Z,13.84
2022-10-22T18:52:59.562Z,13.90
2022-10-22T18:57:11.083Z,13.99
2022-10-22T19:01:25.166Z,13.98
2022-10-22T19:06:06.080Z,14.00
2022-10-22T19:10:18.023Z,13.90
2022-10-22T19:14:29.582Z,13.91
2022-10-22T19:18:42.186Z,13.87
2022-10-22T19:22:55.782Z,13.82
2022-10-22T19:27:08.382Z,13.84
2022-10-22T19:31:22.088Z,13.84
2022-10-22T19:35:36.420Z,13.86
2022-10-22T19:39:49.541Z,13.83
2022-10-22T19:44:01.560Z,13.86
2022-10-22T19:48:14.291Z,13.89
2022-10-22T19:52:25.804Z,13.87
2022-10-22T19:56:37.923Z,13.84
2022-10-22T20:00:49.523Z,13.85
2022-10-22T20:05:01.052Z,13.88
2022-10-22T20:09:13.717Z,13.88
2022-10-22T20:13:25.323Z,13.84
2022-10-22T20:17:36.839Z,13.84
2022-10-22T20:21:50.442Z,13.62
2022-10-22T20:26:02.100Z,13.76
2022-10-22T20:30:14.323Z,13.75
2022-10-22T20:34:25.886Z,13.64
2022-10-22T20:42:49.319Z,13.63
2022-10-22T20:47:00.849Z,13.73
2022-10-22T20:51:12.671Z,13.71
2022-10-22T20:55:24.381Z,13.74
2022-10-22T20:59:36.273Z,13.72
2022-10-22T21:03:52.093Z,13.69
2022-10-22T21:08:05.011Z,13.71
2022-10-22T21:12:17.449Z,13.70
2022-10-22T21:16:29.201Z,13.68
2022-10-22T21:20:40.739Z,13.69
2022-10-22T21:24:52.248Z,13.70
2022-10-22T21:29:04.006Z,13.71
2022-10-22T21:33:15.565Z,13.69
2022-10-22T21:37:29.835Z,13.63
2022-10-22T21:41:41.380Z,13.65
2022-10-22T21:46:10.180Z,13.65
2022-10-22T21:50:21.668Z,13.65
2022-10-22T21:54:35.611Z,13.64
2022-10-22T21:58:47.524Z,13.64
2022-10-22T22:02:59.175Z,13.66
2022-10-22T22:07:10.736Z,13.65
2022-10-22T22:11:25.004Z,13.69
2022-10-22T22:15:36.517Z,13.69
2022-10-22T22:19:48.001Z,13.71
2022-10-22T22:23:59.926Z,13.68
2022-10-22T22:28:11.719Z,13.70
2022-10-22T22:32:23.222Z,13.73
2022-10-22T22:36:38.247Z,13.71
2022-10-22T22:40:49.766Z,13.66
2022-10-22T22:45:01.247Z,13.66
2022-10-22T22:49:13.865Z,13.62
2022-10-22T22:53:26.044Z,13.63
2022-10-22T22:57:37.643Z,13.59
2022-10-22T23:01:50.075Z,13.57
2022-10-22T23:06:01.685Z,13.57
2022-10-22T23:10:13.245Z,13.51
2022-10-22T23:14:24.995Z,13.53
2022-10-22T23:18:36.571Z,13.53
2022-10-22T23:22:48.104Z,13.38
2022-10-22T23:27:02.553Z,13.52
2022-10-22T23:31:16.487Z,13.51
2022-10-22T23:35:27.984Z,13.52
2022-10-22T23:39:39.537Z,13.51
2022-10-22T23:43:51.017Z,13.51
2022-10-22T23:48:02.958Z,13.52
2022-10-22T23:52:14.547Z,13.55
2022-10-22T23:56:27.342Z,13.51
